Time;durP1;ratioP1;P1;durP2;ratioP2;P2;SDS_P1;SDS_P2;PMS_P1;PMS_P2;Temp;Humidity;BMP_temperature;BMP_pressure;BME280_temperature;BME280_humidity;BME280_pressure;Samples;Min_cycle;Max_cycle;Signal;HPM_P1;HPM_P2
2021/08/09 00:03:48;;;;;;;1999.90;999.90;;;;;;;17.19;70.66;101127.34;15800580;28;20048;-60
2021/08/09 00:11:22;;;;;;;1999.90;999.90;;;;;;;17.17;71.31;101132.53;15800636;28;20093;-59
2021/08/09 00:18:54;;;;;;;1999.90;999.90;;;;;;;16.96;71.45;101137.69;15800849;28;20152;-57
2021/08/09 00:26:29;;;;;;;1999.90;999.90;;;;;;;16.89;72.02;101137.53;15762791;28;20048;-59
2021/08/09 00:34:01;;;;;;;1999.90;999.90;;;;;;;16.57;71.97;101137.53;15736391;28;20463;-59
2021/08/09 00:41:38;;;;;;;1999.90;999.90;;;;;;;16.78;71.37;101130.78;15735682;28;20063;-60
2021/08/09 00:49:15;;;;;;;1999.90;999.90;;;;;;;16.54;72.26;101129.78;15735170;28;20371;-58
2021/08/09 00:56:50;;;;;;;1999.90;999.90;;;;;;;16.32;72.36;101144.47;15732581;28;20055;-60
2021/08/09 01:04:52;;;;;;;1999.90;999.90;;;;;;;16.60;71.40;101142.41;15729807;28;20490;-60
2021/08/09 01:12:36;;;;;;;1999.90;999.90;;;;;;;16.47;71.54;101132.44;15734614;28;20116;-60
2021/08/09 01:20:35;;;;;;;1999.90;999.90;;;;;;;16.36;71.59;101151.88;15672331;28;20060;-60
2021/08/09 01:28:18;;;;;;;1999.90;999.90;;;;;;;16.28;71.30;101157.66;15773962;28;20069;-59
2021/08/09 01:35:56;;;;;;;1999.90;999.90;;;;;;;16.21;71.06;101174.34;15795876;28;20101;-57
2021/08/09 01:43:37;;;;;;;1999.90;999.90;;;;;;;16.09;70.85;101181.69;15779589;28;20058;-58
2021/08/09 01:51:10;;;;;;;1999.90;999.90;;;;;;;16.02;71.01;101178.66;15778765;28;20040;-59
2021/08/09 01:58:46;;;;;;;1999.90;999.90;;;;;;;16.00;70.62;101188.66;15795618;28;20131;-58
2021/08/09 02:06:19;;;;;;;1999.90;999.90;;;;;;;15.97;71.25;101184.56;15794906;28;20043;-58
2021/08/09 02:13:58;;;;;;;1999.90;999.90;;;;;;;15.86;71.59;101189.06;15795226;28;20117;-59
2021/08/09 02:21:35;;;;;;;1999.90;999.90;;;;;;;15.82;71.39;101193.75;15795172;28;20423;-57
2021/08/09 02:29:13;;;;;;;1999.90;999.90;;;;;;;15.63;71.21;101204.81;15718218;28;20048;-56
2021/08/09 02:36:46;;;;;;;1999.90;999.90;;;;;;;15.70;71.62;101208.69;15731727;28;20048;-58
2021/08/09 02:44:21;;;;;;;1999.90;999.90;;;;;;;15.78;71.68;101218.16;15734926;28;20123;-60
2021/08/09 02:51:55;;;;;;;1999.90;999.90;;;;;;;15.70;72.09;101213.50;15743768;28;20033;-59
2021/08/09 02:59:29;;;;;;;1999.90;999.90;;;;;;;15.72;72.29;101230.81;15743014;28;20102;-58
2021/08/09 03:07:05;;;;;;;1999.90;999.90;;;;;;;15.59;72.30;101233.66;15742721;28;20248;-57
2021/08/09 03:14:40;;;;;;;1999.90;999.90;;;;;;;15.50;72.66;101249.81;15742806;28;20064;-58
2021/08/09 03:22:12;;;;;;;1999.90;999.90;;;;;;;15.54;72.91;101233.91;15726892;28;20290;-58
2021/08/09 03:29:48;;;;;;;1999.90;999.90;;;;;;;15.43;73.10;101235.56;15742373;22;20140;-61
2021/08/09 03:37:21;;;;;;;1999.90;999.90;;;;;;;15.30;73.37;101228.28;15612382;28;20037;-61
2021/08/09 03:44:54;;;;;;;1999.90;999.90;;;;;;;15.45;73.30;101240.81;15683979;28;20497;-59
2021/08/09 03:52:27;;;;;;;1999.90;999.90;;;;;;;15.43;73.18;101240.38;15666436;28;20048;-61
2021/08/09 04:00:00;;;;;;;1999.90;999.90;;;;;;;15.33;73.28;101246.47;15682227;28;20044;-61
2021/08/09 04:07:33;;;;;;;1999.90;999.90;;;;;;;15.54;72.83;101242.34;15681879;28;20037;-61
2021/08/09 04:15:09;;;;;;;1999.90;999.90;;;;;;;15.63;72.61;101239.44;15680969;28;20060;-60
2021/08/09 04:22:41;;;;;;;1999.90;999.90;;;;;;;15.56;73.35;101247.59;15686091;28;20032;-61
2021/08/09 04:30:15;;;;;;;1999.90;999.90;;;;;;;15.78;72.70;101257.56;15742527;28;20041;-61
2021/08/09 04:37:52;;;;;;;1999.90;999.90;;;;;;;15.71;72.99;101252.53;15724835;28;20041;-62
2021/08/09 04:45:29;;;;;;;1999.90;999.90;;;;;;;15.71;72.61;101254.50;15725944;28;20055;-62
2021/08/09 04:53:03;;;;;;;1999.90;999.90;;;;;;;15.90;72.56;101249.06;15742487;28;20486;-61
2021/08/09 05:00:38;;;;;;;1999.90;999.90;;;;;;;16.02;72.37;101251.84;15741997;28;20452;-61
2021/08/09 05:08:14;;;;;;;1999.90;999.90;;;;;;;15.95;72.22;101254.47;15741478;28;20040;-62
2021/08/09 05:15:49;;;;;;;1999.90;999.90;;;;;;;16.70;70.78;101268.69;15725485;28;20049;-62
2021/08/09 05:23:21;;;;;;;1999.90;999.90;;;;;;;16.81;69.95;101269.00;15728261;28;20350;-62
2021/08/09 05:30:55;;;;;;;1999.90;999.90;;;;;;;17.15;68.53;101278.72;15659866;28;20112;-62
2021/08/09 05:38:28;;;;;;;1999.90;999.90;;;;;;;17.07;67.86;101284.53;15659720;28;20048;-64
2021/08/09 05:46:02;;;;;;;1999.90;999.90;;;;;;;17.66;68.50;101295.69;15676787;28;20057;-62
2021/08/09 05:53:40;;;;;;;1999.90;999.90;;;;;;;18.45;66.44;101304.72;15660015;28;20041;-61
2021/08/09 06:01:15;;;;;;;1999.90;999.90;;;;;;;18.92;64.74;101308.47;15675055;28;20033;-61
2021/08/09 06:08:49;;;;;;;1999.90;999.90;;;;;;;19.10;64.24;101314.47;15659058;28;20040;-61
2021/08/09 06:16:27;;;;;;;1999.90;999.90;;;;;;;19.08;63.64;101322.50;15675751;28;20041;-61
2021/08/09 06:24:02;;;;;;;1999.90;999.90;;;;;;;19.22;63.34;101329.22;15703120;28;20041;-62
2021/08/09 06:31:36;;;;;;;1999.90;999.90;;;;;;;19.21;63.11;101323.94;15731916;28;20139;-61
2021/08/09 06:39:18;;;;;;;1999.90;999.90;;;;;;;18.84;63.55;101323.66;15747832;28;20036;-61
2021/08/09 06:46:51;;;;;;;1999.90;999.90;;;;;;;19.08;63.00;101328.97;15731461;28;20052;-61
2021/08/09 06:54:26;;;;;;;1999.90;999.90;;;;;;;18.87;63.86;101326.56;15730471;28;20044;-61
2021/08/09 07:02:09;;;;;;;1999.90;999.90;;;;;;;19.39;64.17;101327.09;15746617;28;20386;-62
2021/08/09 07:09:42;;;;;;;1999.90;999.90;;;;;;;19.47;64.45;101340.16;15745288;28;20032;-61
2021/08/09 07:17:15;;;;;;;1999.90;999.90;;;;;;;19.70;62.93;101346.66;15661012;28;20417;-62
2021/08/09 07:24:48;;;;;;;1999.90;999.90;;;;;;;20.18;60.77;101333.59;15707260;28;20044;-62
2021/08/09 07:32:22;;;;;;;1999.90;999.90;;;;;;;20.67;59.39;101328.97;15728263;28;20568;-62
2021/08/09 07:39:54;;;;;;;1999.90;999.90;;;;;;;21.00;58.28;101328.94;15745492;28;20562;-62
2021/08/09 07:47:28;;;;;;;1999.90;999.90;;;;;;;21.00;60.58;101316.75;15728304;28;20048;-61
2021/08/09 07:55:02;;;;;;;1999.90;999.90;;;;;;;20.58;60.60;101331.28;15744748;28;20052;-61
2021/08/09 08:02:36;;;;;;;1999.90;999.90;;;;;;;20.41;59.43;101330.66;15743702;28;20443;-61
2021/08/09 08:10:10;;;;;;;1999.90;999.90;;;;;;;20.21;60.46;101343.31;15742905;28;20493;-61
2021/08/09 08:17:44;;;;;;;1999.90;999.90;;;;;;;19.98;60.78;101343.41;15743815;28;20041;-61
2021/08/09 08:25:17;;;;;;;1999.90;999.90;;;;;;;20.72;59.17;101335.09;15714172;28;20051;-61
2021/08/09 08:32:53;;;;;;;1999.90;999.90;;;;;;;20.80;59.37;101352.22;15679239;28;20033;-62
2021/08/09 08:40:26;;;;;;;1999.90;999.90;;;;;;;20.73;58.95;101359.41;15678999;28;20072;-61
2021/08/09 08:48:01;;;;;;;1999.90;999.90;;;;;;;20.65;59.75;101368.25;15662973;28;20051;-61
2021/08/09 08:55:36;;;;;;;1999.90;999.90;;;;;;;21.50;59.00;101362.69;15678479;28;20198;-61
2021/08/09 09:03:18;;;;;;;1999.90;999.90;;;;;;;21.73;57.37;101383.16;15679137;28;20090;-61
2021/08/09 09:10:50;;;;;;;1999.90;999.90;;;;;;;21.44;59.40;101381.28;15676947;28;20568;-61
2021/08/09 09:18:27;;;;;;;1999.90;999.90;;;;;;;21.37;57.87;101381.22;15678482;28;20507;-61
2021/08/09 09:26:18;;;;;;;1999.90;999.90;;;;;;;21.45;57.08;101397.09;15711516;28;20052;-61
2021/08/09 09:33:52;;;;;;;1999.90;999.90;;;;;;;22.78;55.12;101400.47;15737882;22;20400;-73
2021/08/09 09:41:27;;;;;;;1999.90;999.90;;;;;;;22.47;55.03;101387.72;15736581;28;20041;-74
2021/08/09 09:49:05;;;;;;;1999.90;999.90;;;;;;;23.54;51.50;101380.31;15736699;28;20128;-73
2021/08/09 09:56:47;;;;;;;1999.90;999.90;;;;;;;23.32;52.79;101388.03;15762482;28;20124;-73
2021/08/09 10:04:25;;;;;;;1999.90;999.90;;;;;;;23.66;51.04;101386.91;15749290;28;20040;-73
2021/08/09 10:11:59;;;;;;;1999.90;999.90;;;;;;;25.15;48.62;101389.34;15749650;28;20048;-73
2021/08/09 10:19:37;;;;;;;1999.90;999.90;;;;;;;25.89;46.98;101390.84;15748819;28;20086;-71
2021/08/09 10:27:16;;;;;;;1999.90;999.90;;;;;;;27.27;44.32;101381.84;15792013;28;20530;-73
2021/08/09 10:34:50;;;;;;;1999.90;999.90;;;;;;;27.64;41.57;101374.31;15810634;28;20296;-73
2021/08/09 10:42:40;;;;;;;1999.90;999.90;;;;;;;28.22;36.92;101379.84;15810626;28;20454;-74
2021/08/09 10:50:51;;;;;;;1999.90;999.90;;;;;;;27.76;38.75;101370.88;15809395;28;20040;-74
2021/08/09 10:58:54;;;;;;;1999.90;999.90;;;;;;;27.02;40.33;101370.78;15802268;28;20048;-74
2021/08/09 11:06:55;;;;;;;1999.90;999.90;;;;;;;28.46;37.14;101372.88;15806664;28;20044;-73
2021/08/09 11:15:19;;;;;;;1999.90;999.90;;;;;;;28.88;38.00;101371.19;15770363;28;20097;-74
2021/08/09 11:22:59;;;;;;;1999.90;999.90;;;;;;;29.41;36.80;101362.56;15800472;28;20472;-74
2021/08/09 11:30:41;;;;;;;1999.90;999.90;;;;;;;29.63;35.57;101357.91;15744154;28;20044;-73
2021/08/09 11:38:14;;;;;;;1999.90;999.90;;;;;;;29.79;37.27;101359.97;15743207;28;20099;-73
2021/08/09 11:45:48;;;;;;;1999.90;999.90;;;;;;;31.53;34.52;101357.72;15742469;28;20131;-73
2021/08/09 11:53:38;;;;;;;;;;;;;;;;;;;;;
2021/08/09 12:01:44;;;;;;;1999.90;999.90;;;;;;;28.38;35.14;101349.22;15742581;28;20041;-75
2021/08/09 12:09:25;;;;;;;1999.90;999.90;;;;;;;27.52;38.09;101347.09;15738842;28;20128;-74
2021/08/09 12:17:15;;;;;;;1999.90;999.90;;;;;;;26.84;38.55;101347.28;15740216;28;20078;-74
2021/08/09 12:25:11;;;;;;;1999.90;999.90;;;;;;;26.57;39.99;101344.34;15766407;28;20078;-75
2021/08/09 12:33:29;;;;;;;1999.90;999.90;;;;;;;27.23;38.46;101346.72;15801713;28;20078;-73
2021/08/09 12:41:04;;;;;;;1999.90;999.90;;;;;;;27.22;38.18;101335.72;15802055;28;20048;-74
2021/08/09 12:48:46;;;;;;;1999.90;999.90;;;;;;;27.48;34.84;101326.25;15801776;28;20044;-74
2021/08/09 12:56:18;;;;;;;1999.90;999.90;;;;;;;26.83;36.49;101331.34;15802095;28;20105;-73
2021/08/09 13:03:56;;;;;;;1999.90;999.90;;;;;;;27.47;35.83;101327.50;15807716;28;20059;-74
2021/08/09 13:11:28;;;;;;;1999.90;999.90;;;;;;;27.93;35.29;101314.44;15490237;28;20046;-74
2021/08/09 13:19:02;;;;;;;1999.90;999.90;;;;;;;30.81;30.90;101320.91;15498597;28;20074;-75
2021/08/09 13:26:38;;;;;;;1999.90;999.90;;;;;;;27.36;36.37;101314.59;15573956;28;20422;-75
2021/08/09 13:34:15;;;;;;;1999.90;999.90;;;;;;;26.95;37.52;101310.69;15610716;28;20056;-75
2021/08/09 13:41:57;;;;;;;1999.90;999.90;;;;;;;27.20;36.51;101301.78;15593112;28;20046;-74
2021/08/09 13:49:34;;;;;;;1999.90;999.90;;;;;;;26.94;39.20;101294.78;15560778;28;20108;-74
2021/08/09 13:57:06;;;;;;;1999.90;999.90;;;;;;;27.10;38.88;101293.34;15551816;28;20423;-74
2021/08/09 14:04:43;;;;;;;1999.90;999.90;;;;;;;27.32;38.71;101291.75;15533356;28;20519;-75
2021/08/09 14:12:23;;;;;;;1999.90;999.90;;;;;;;26.24;39.98;101288.75;15552914;28;20093;-74
2021/08/09 14:19:56;;;;;;;1999.90;999.90;;;;;;;26.36;39.25;101296.75;15551204;28;20048;-74
2021/08/09 14:27:33;;;;;;;1999.90;999.90;;;;;;;26.05;42.62;101297.97;15505557;28;20070;-74
2021/08/09 14:35:12;;;;;;;1999.90;999.90;;;;;;;25.88;41.46;101289.16;15490644;28;20415;-74
2021/08/09 14:42:54;;;;;;;1999.90;999.90;;;;;;;26.01;43.26;101289.44;15480970;28;20046;-74
2021/08/09 14:50:32;;;;;;;1999.90;999.90;;;;;;;26.80;41.85;101280.69;15500017;28;20042;-74
2021/08/09 14:58:04;;;;;;;1999.90;999.90;;;;;;;26.91;39.27;101289.09;15500807;28;20050;-74
2021/08/09 15:05:38;;;;;;;1999.90;999.90;;;;;;;26.44;40.93;101291.78;15497756;28;20101;-73
2021/08/09 15:13:19;;;;;;;1999.90;999.90;;;;;;;26.30;40.66;101286.25;15483072;28;20562;-74
2021/08/09 15:20:53;;;;;;;1999.90;999.90;;;;;;;26.35;44.64;101280.03;15498047;28;20092;-74
2021/08/09 15:28:25;;;;;;;1999.90;999.90;;;;;;;26.23;42.67;101267.09;15549539;28;20538;-74
2021/08/09 15:35:59;;;;;;;1999.90;999.90;;;;;;;26.03;41.46;101271.84;15558701;28;20046;-74
2021/08/09 15:43:34;;;;;;;1999.90;999.90;;;;;;;26.24;41.33;101277.31;15558694;28;20048;-73
2021/08/09 15:51:09;;;;;;;1999.90;999.90;;;;;;;25.70;40.40;101271.38;15557288;28;20053;-75
2021/08/09 15:58:42;;;;;;;1999.90;999.90;;;;;;;25.75;40.23;101279.50;15555661;28;20141;-75
2021/08/09 16:06:15;;;;;;;1999.90;999.90;;;;;;;25.55;40.05;101272.75;15557167;28;20057;-75
2021/08/09 16:13:47;;;;;;;1999.90;999.90;;;;;;;25.57;41.56;101275.97;15557314;28;20056;-75
2021/08/09 16:21:21;;;;;;;1999.90;999.90;;;;;;;25.41;39.91;101276.53;15554972;28;20041;-74
2021/08/09 16:28:53;;;;;;;1999.90;999.90;;;;;;;25.49;40.98;101277.28;15498970;28;20050;-75
2021/08/09 16:36:27;;;;;;;1999.90;999.90;;;;;;;25.41;41.08;101285.09;15492427;28;20145;-74
2021/08/09 16:44:00;;;;;;;1999.90;999.90;;;;;;;24.09;43.75;101305.81;15494484;28;20454;-74
2021/08/09 16:51:36;;;;;;;1999.90;999.90;;;;;;;23.45;46.77;101296.53;15493340;28;20030;-74
2021/08/09 16:59:09;;;;;;;1999.90;999.90;;;;;;;23.83;45.97;101269.22;15493628;28;20222;-74
2021/08/09 17:06:43;;;;;;;1999.90;999.90;;;;;;;23.85;45.95;101264.72;15491472;28;20058;-74
2021/08/09 17:14:18;;;;;;;1999.90;999.90;;;;;;;23.90;46.24;101255.78;15476991;28;20074;-74
2021/08/09 17:21:52;;;;;;;1999.90;999.90;;;;;;;24.00;45.86;101256.97;15475470;28;20165;-74
2021/08/09 17:29:30;;;;;;;1999.90;999.90;;;;;;;24.01;48.94;101254.94;15430543;28;20042;-74
2021/08/09 17:37:05;;;;;;;1999.90;999.90;;;;;;;23.85;49.86;101266.78;15431017;28;20058;-74
2021/08/09 17:44:38;;;;;;;1999.90;999.90;;;;;;;23.68;51.35;101276.19;15431542;28;20074;-75
2021/08/09 17:52:13;;;;;;;;;;;;;;;23.50;53.50;101276.97;15433531;28;20042;-74
2021/08/09 17:59:45;;;;;;;1999.90;999.90;;;;;;;22.59;56.80;101256.53;15430969;28;19936;-74
2021/08/09 18:07:22;;;;;;;1999.90;999.90;;;;;;;22.60;54.89;101291.50;15429403;28;20158;-72
2021/08/09 18:14:54;;;;;;;1999.90;999.90;;;;;;;22.10;54.11;101305.53;15433827;28;20539;-74
2021/08/09 18:22:29;;;;;;;1999.90;999.90;;;;;;;22.06;54.52;101310.31;15447836;28;20061;-74
2021/08/09 18:30:03;;;;;;;1999.90;999.90;;;;;;;21.97;56.94;101347.59;15448340;28;20047;-75
2021/08/09 18:37:37;;;;;;;1999.90;999.90;;;;;;;21.41;60.41;101373.56;15442061;28;20074;-73
2021/08/09 18:45:10;;;;;;;1999.90;999.90;;;;;;;21.13;63.23;101391.06;15440219;28;20388;-73
2021/08/09 18:52:45;;;;;;;1999.90;999.90;;;;;;;21.22;66.21;101420.78;15441000;28;20496;-72
2021/08/09 19:08:04;;;;;;;1999.90;999.90;;;;;;;19.61;72.77;101416.88;15509844;28;20050;-61
2021/08/09 19:15:37;;;;;;;1999.90;999.90;;;;;;;19.13;74.19;101390.88;15521033;28;20045;-62
2021/08/09 19:23:10;;;;;;;1999.90;999.90;;;;;;;19.52;73.87;101337.81;15550218;28;20085;-63
2021/08/09 19:30:42;;;;;;;1999.90;999.90;;;;;;;19.60;74.37;101339.63;15497694;28;20034;-64
2021/08/09 19:38:18;;;;;;;1999.90;999.90;;;;;;;19.71;73.89;101373.75;15497620;28;20042;-61
2021/08/09 19:45:50;;;;;;;1999.90;999.90;;;;;;;18.98;74.00;101369.19;15483627;28;20054;-62
2021/08/09 19:53:24;;;;;;;1999.90;999.90;;;;;;;18.85;73.73;101362.06;15498401;28;20068;-61
2021/08/09 20:00:59;;;;;;;1999.90;999.90;;;;;;;18.95;73.38;101372.75;15502320;28;20045;-61
2021/08/09 20:08:32;;;;;;;1999.90;999.90;;;;;;;18.75;74.64;101352.16;15556312;28;20050;-62
2021/08/09 20:16:06;;;;;;;1999.90;999.90;;;;;;;18.94;73.15;101346.47;15555459;28;20068;-62
2021/08/09 20:23:39;;;;;;;1999.90;999.90;;;;;;;18.42;76.34;101339.34;15538953;28;20056;-62
2021/08/09 20:31:11;;;;;;;1999.90;999.90;;;;;;;19.01;75.93;101346.63;15537492;28;20079;-61
2021/08/09 20:38:45;;;;;;;1999.90;999.90;;;;;;;19.16;75.56;101333.56;15556007;28;20056;-60
2021/08/09 20:46:17;;;;;;;1999.90;999.90;;;;;;;18.84;77.23;101323.66;15555956;28;20038;-63
2021/08/09 20:53:55;;;;;;;1999.90;999.90;;;;;;;19.13;75.87;101328.66;15557858;28;20065;-60
2021/08/09 21:01:28;;;;;;;1999.90;999.90;;;;;;;18.85;76.09;101325.28;15556516;28;20038;-58
2021/08/09 21:09:01;;;;;;;;;;;;;;;18.99;75.71;101339.72;15556236;28;20041;-57
2021/08/09 21:16:34;;;;;;;1999.90;999.90;;;;;;;19.00;76.06;101333.69;15554690;28;19976;-61
2021/08/09 21:24:08;;;;;;;1999.90;999.90;;;;;;;18.72;75.26;101330.31;15539575;28;20183;-61
2021/08/09 21:31:40;;;;;;;1999.90;999.90;;;;;;;18.70;75.16;101324.22;15495686;28;20378;-62
2021/08/09 21:39:15;;;;;;;1999.90;999.90;;;;;;;18.81;74.38;101316.75;15494359;28;20057;-61
2021/08/09 21:46:48;;;;;;;1999.90;999.90;;;;;;;18.98;74.87;101321.94;15538001;28;20077;-62
2021/08/09 21:54:22;;;;;;;1999.90;999.90;;;;;;;18.83;75.02;101324.84;15566865;28;20100;-63
2021/08/09 22:01:54;;;;;;;1999.90;999.90;;;;;;;18.53;75.36;101325.44;15574829;28;20041;-63
2021/08/09 22:09:28;;;;;;;1999.90;999.90;;;;;;;18.43;74.95;101318.38;15581405;28;20284;-64
2021/08/09 22:17:03;;;;;;;1999.90;999.90;;;;;;;18.27;75.71;101322.50;15579491;28;20056;-63
2021/08/09 22:24:37;;;;;;;1999.90;999.90;;;;;;;18.30;75.73;101322.56;15556452;28;20058;-63
2021/08/09 22:32:10;;;;;;;1999.90;999.90;;;;;;;18.15;75.82;101329.91;15518013;28;20050;-63
2021/08/09 22:39:48;;;;;;;1999.90;999.90;;;;;;;18.04;75.49;101351.44;15517810;28;20118;-61
2021/08/09 22:47:21;;;;;;;1999.90;999.90;;;;;;;17.93;75.86;101350.41;15514550;28;20583;-63
2021/08/09 22:54:54;;;;;;;1999.90;999.90;;;;;;;17.98;75.98;101346.44;15514126;28;20054;-63
2021/08/09 23:02:27;;;;;;;1999.90;999.90;;;;;;;17.73;75.60;101352.34;15531918;28;20042;-62
2021/08/09 23:10:02;;;;;;;1999.90;999.90;;;;;;;17.72;76.33;101350.69;15556639;28;20050;-60
2021/08/09 23:17:34;;;;;;;1999.90;999.90;;;;;;;17.59;76.63;101343.47;15550436;28;20053;-63
2021/08/09 23:25:09;;;;;;;1999.90;999.90;;;;;;;17.54;75.84;101346.59;15515941;28;20050;-62
2021/08/09 23:32:42;;;;;;;1999.90;999.90;;;;;;;17.47;76.12;101337.94;15556078;28;20069;-62
2021/08/09 23:40:16;;;;;;;1999.90;999.90;;;;;;;17.44;75.95;101335.84;15562438;28;20414;-62
2021/08/09 23:47:48;;;;;;;1999.90;999.90;;;;;;;17.34;75.74;101337.22;15531277;28;20046;-62
2021/08/09 23:55:22;;;;;;;1999.90;999.90;;;;;;;17.36;76.78;101340.50;15502631;28;20049;-63
